createdAt,value
2018-07-11T00:05:04.032Z,2.83
2018-07-11T00:11:08.653Z,2.70
2018-07-11T00:17:14.180Z,2.53
2018-07-11T00:23:17.452Z,3.47
2018-07-11T00:29:20.895Z,3.30
2018-07-11T00:35:24.580Z,3.70
2018-07-11T00:41:28.395Z,3.43
2018-07-11T00:47:31.917Z,3.40
2018-07-11T00:53:36.592Z,3.87
2018-07-11T00:59:42.217Z,4.37
2018-07-11T01:05:45.765Z,4.57
2018-07-11T01:11:49.060Z,4.00
2018-07-11T01:18:03.484Z,4.20
2018-07-11T01:24:06.967Z,4.87
2018-07-11T01:30:10.370Z,5.27
2018-07-11T01:36:13.818Z,4.57
2018-07-11T01:42:17.074Z,5.40
2018-07-11T01:48:20.458Z,5.60
2018-07-11T01:54:24.023Z,6.00
2018-07-11T02:00:28.564Z,6.07
2018-07-11T02:06:32.081Z,7.23
2018-07-11T02:12:35.924Z,6.87
2018-07-11T02:18:39.952Z,6.93
2018-07-11T02:24:43.376Z,7.63
2018-07-11T02:30:47.496Z,7.97
2018-07-11T02:36:50.727Z,8.17
2018-07-11T02:42:54.166Z,9.00
2018-07-11T02:48:57.611Z,9.43
2018-07-11T02:55:01.036Z,9.80
2018-07-11T03:01:04.381Z,9.13
2018-07-11T03:07:08.662Z,8.73
2018-07-11T03:13:13.656Z,10.50
2018-07-11T03:19:17.804Z,10.13
2018-07-11T03:25:21.821Z,10.53
2018-07-11T03:31:25.295Z,10.20
2018-07-11T03:37:28.543Z,10.93
2018-07-11T03:43:31.956Z,10.17
2018-07-11T03:49:36.536Z,11.70
2018-07-11T03:55:40.768Z,12.63
2018-07-11T04:01:44.691Z,11.97
2018-07-11T04:07:48.181Z,10.97
2018-07-11T04:13:51.618Z,9.60
2018-07-11T04:19:55.142Z,10.70
2018-07-11T04:25:59.133Z,10.47
2018-07-11T04:32:02.423Z,10.83
2018-07-11T04:38:06.052Z,10.67
2018-07-11T04:44:10.502Z,9.43
2018-07-11T04:50:14.844Z,10.10
2018-07-11T04:56:18.167Z,9.73
2018-07-11T05:02:22.173Z,10.93
2018-07-11T05:08:26.706Z,10.10
2018-07-11T05:14:29.977Z,11.37
2018-07-11T05:20:33.484Z,11.80
2018-07-11T05:26:37.385Z,11.73
2018-07-11T05:32:40.576Z,11.77
2018-07-11T05:38:43.963Z,11.60
2018-07-11T05:44:47.348Z,11.90
2018-07-11T05:50:50.580Z,11.57
2018-07-11T05:56:54.268Z,11.87
2018-07-11T06:02:57.858Z,17.70
2018-07-11T06:09:01.237Z,13.63
2018-07-11T06:15:04.495Z,10.97
2018-07-11T06:21:08.515Z,10.30
2018-07-11T06:27:16.592Z,11.77
2018-07-11T06:33:19.955Z,10.53
2018-07-11T06:39:23.352Z,11.77
2018-07-11T06:45:26.949Z,11.50
2018-07-11T06:51:30.352Z,10.70
2018-07-11T06:57:33.779Z,10.87
2018-07-11T07:03:37.022Z,11.10
2018-07-11T07:09:40.400Z,10.70
2018-07-11T07:15:44.515Z,10.03
2018-07-11T07:21:47.767Z,9.73
2018-07-11T07:27:51.100Z,9.20
2018-07-11T07:33:54.673Z,10.37
2018-07-11T07:39:57.917Z,8.17
2018-07-11T07:46:01.495Z,9.63
2018-07-11T07:52:05.041Z,9.50
2018-07-11T07:58:08.342Z,9.87
2018-07-11T08:04:12.615Z,11.73
2018-07-11T08:10:15.968Z,8.57
2018-07-11T08:16:19.435Z,7.03
2018-07-11T08:23:37.249Z,8.60
2018-07-11T08:30:55.403Z,7.00
2018-07-11T08:38:16.672Z,5.73
2018-07-11T08:46:13.444Z,10.37
2018-07-11T08:53:36.728Z,7.50
2018-07-11T09:02:04.801Z,4.77
2018-07-11T09:08:43.489Z,6.73
2018-07-11T09:15:04.028Z,6.67
2018-07-11T09:24:02.938Z,5.47
2018-07-11T09:30:06.680Z,5.93
2018-07-11T09:36:09.885Z,6.63
2018-07-11T09:42:13.216Z,6.67
2018-07-11T09:48:17.222Z,7.63
2018-07-11T09:54:20.570Z,4.47
2018-07-11T10:00:30.044Z,6.80
2018-07-11T10:06:34.133Z,4.80
2018-07-11T10:12:37.507Z,6.60
2018-07-11T10:18:51.968Z,7.92
2018-07-11T10:24:55.355Z,5.65
2018-07-11T10:31:03.184Z,7.85
2018-07-11T10:37:06.604Z,5.55
2018-07-11T10:43:10.268Z,6.10
2018-07-11T10:49:13.741Z,8.20
2018-07-11T10:55:17.300Z,7.45
2018-07-11T11:01:20.653Z,5.58
2018-07-11T11:07:24.953Z,6.62
2018-07-11T11:13:28.315Z,10.68
2018-07-11T11:19:32.347Z,4.60
2018-07-11T11:25:35.979Z,7.55
2018-07-11T11:31:39.640Z,2.55
2018-07-11T11:37:43.183Z,6.65
2018-07-11T11:43:46.708Z,4.10
2018-07-11T11:49:50.064Z,7.53
2018-07-11T11:55:53.540Z,10.10
2018-07-11T12:01:57.213Z,6.15
2018-07-11T12:08:00.839Z,5.40
2018-07-11T12:14:04.184Z,3.67
2018-07-11T12:20:08.787Z,5.95
2018-07-11T12:26:12.522Z,5.80
2018-07-11T12:32:16.031Z,4.33
2018-07-11T12:38:20.421Z,6.95
2018-07-11T12:44:25.461Z,7.95
2018-07-11T12:50:30.796Z,5.92
2018-07-11T12:56:34.956Z,5.78
2018-07-11T13:02:38.986Z,6.58
2018-07-11T13:08:42.409Z,4.87
2018-07-11T13:14:46.436Z,4.33
2018-07-11T13:20:49.913Z,6.25
2018-07-11T13:26:53.276Z,4.97
2018-07-11T13:32:56.860Z,8.05
2018-07-11T13:39:00.255Z,6.58
2018-07-11T13:45:03.631Z,7.55
2018-07-11T13:51:07.165Z,7.43
2018-07-11T13:57:10.588Z,11.53
2018-07-11T14:03:14.061Z,10.30
2018-07-11T14:09:18.042Z,11.43
2018-07-11T14:15:21.435Z,11.73
2018-07-11T14:21:24.800Z,13.00
2018-07-11T14:27:29.053Z,12.53
2018-07-11T14:33:33.369Z,13.63
2018-07-11T14:39:36.733Z,16.10
2018-07-11T14:45:40.691Z,14.43
2018-07-11T14:51:44.103Z,13.33
2018-07-11T14:57:48.890Z,15.10
2018-07-11T15:03:52.901Z,12.50
2018-07-11T15:09:56.365Z,11.67
2018-07-11T15:15:59.846Z,15.67
2018-07-11T15:22:03.736Z,13.73
2018-07-11T15:28:08.038Z,14.50
2018-07-11T15:34:11.969Z,15.90
2018-07-11T15:40:15.442Z,16.57
2018-07-11T15:46:19.190Z,18.37
2018-07-11T15:52:24.207Z,18.83
2018-07-11T15:58:30.229Z,19.07
2018-07-11T16:04:35.884Z,19.13
2018-07-11T16:10:45.937Z,20.17
2018-07-11T16:16:49.401Z,17.23
2018-07-11T16:22:53.515Z,18.47
2018-07-11T16:29:00.012Z,23.60
2018-07-11T16:35:03.468Z,20.93
2018-07-11T16:41:06.995Z,20.13
2018-07-11T16:47:10.377Z,20.27
2018-07-11T16:53:14.123Z,25.67
2018-07-11T16:59:18.577Z,23.43
2018-07-11T17:05:22.260Z,28.07
2018-07-11T17:11:27.305Z,24.27
2018-07-11T17:17:34.924Z,22.27
2018-07-11T17:23:50.004Z,22.80
2018-07-11T17:30:01.136Z,24.70
2018-07-11T17:36:04.717Z,24.77
2018-07-11T17:42:08.356Z,21.97
2018-07-11T17:49:22.600Z,23.90
2018-07-11T17:55:35.160Z,22.80
2018-07-11T18:01:43.788Z,22.33
2018-07-11T18:07:49.855Z,23.17
2018-07-11T18:13:54.481Z,20.93
2018-07-11T18:20:25.273Z,23.23
2018-07-11T18:27:46.158Z,24.00
2018-07-11T18:35:15.159Z,22.10
2018-07-11T18:41:33.583Z,20.43
2018-07-11T18:47:54.141Z,22.53
2018-07-11T18:54:11.811Z,20.50
2018-07-11T19:01:04.505Z,22.90
2018-07-11T19:07:19.636Z,20.83
2018-07-11T19:13:33.340Z,20.50
2018-07-11T19:19:54.435Z,21.80
2018-07-11T19:26:15.465Z,22.83
2018-07-11T19:34:41.305Z,25.93
2018-07-11T19:40:50.391Z,23.77
2018-07-11T19:48:09.584Z,26.03
2018-07-11T19:54:30.684Z,23.30
2018-07-11T20:00:35.492Z,23.53
2018-07-11T20:06:40.329Z,19.30
2018-07-11T20:12:45.095Z,18.80
2018-07-11T20:18:51.277Z,17.97
2018-07-11T20:24:55.026Z,19.57
2018-07-11T20:30:58.700Z,18.83
2018-07-11T20:37:02.075Z,18.10
2018-07-11T20:43:05.837Z,19.57
2018-07-11T20:49:15.366Z,20.17
2018-07-11T20:55:19.629Z,21.10
2018-07-11T21:01:39.968Z,21.37
2018-07-11T21:08:05.315Z,21.23
2018-07-11T21:14:20.705Z,20.63
2018-07-11T21:20:24.208Z,20.33
2018-07-11T21:33:03.771Z,19.63
2018-07-11T21:39:08.144Z,20.70
2018-07-11T21:45:16.065Z,20.57
2018-07-11T21:51:20.592Z,19.40
2018-07-11T21:57:25.380Z,19.50
2018-07-11T22:03:28.986Z,17.83
2018-07-11T22:09:32.404Z,15.83
2018-07-11T22:15:35.893Z,15.70
2018-07-11T22:21:38.371Z,16.30
2018-07-11T22:27:40.958Z,19.33
2018-07-11T22:33:42.618Z,15.73
2018-07-11T22:39:44.229Z,16.33
2018-07-11T22:45:45.856Z,15.63
2018-07-11T22:51:47.522Z,16.27
2018-07-11T22:57:49.718Z,18.30
2018-07-11T23:03:51.820Z,18.13
2018-07-11T23:09:53.442Z,16.80
2018-07-11T23:15:55.076Z,17.17
2018-07-11T23:21:57.716Z,18.20
2018-07-11T23:27:59.393Z,17.73
2018-07-11T23:34:01.020Z,17.53
2018-07-11T23:40:02.668Z,18.30
2018-07-11T23:46:04.400Z,19.07
2018-07-11T23:52:06.454Z,17.97
2018-07-11T23:58:08.415Z,20.37
